createdAt,value
2023-05-06T00:03:25.177Z,12.93
2023-05-06T00:07:27.452Z,12.90
2023-05-06T00:11:29.445Z,12.84
2023-05-06T00:15:32.187Z,12.79
2023-05-06T00:19:34.524Z,12.74
2023-05-06T00:23:36.412Z,12.73
2023-05-06T00:27:39.127Z,12.74
2023-05-06T00:31:41.190Z,12.77
2023-05-06T00:35:43.026Z,12.77
2023-05-06T00:39:44.777Z,12.77
2023-05-06T00:43:46.742Z,12.75
2023-05-06T00:47:48.672Z,12.72
2023-05-06T00:51:51.598Z,12.69
2023-05-06T00:55:53.512Z,12.69
2023-05-06T00:59:55.480Z,12.69
2023-05-06T01:03:58.958Z,12.72
2023-05-06T01:08:21.663Z,12.72
2023-05-06T01:12:34.284Z,12.72
2023-05-06T01:16:39.245Z,12.70
2023-05-06T01:20:42.395Z,12.67
2023-05-06T01:24:45.237Z,12.63
2023-05-06T01:28:47.141Z,12.59
2023-05-06T01:33:10.993Z,12.56
2023-05-06T01:37:32.538Z,12.57
2023-05-06T01:41:38.143Z,12.58
2023-05-06T01:45:42.022Z,12.59
2023-05-06T01:49:44.083Z,12.58
2023-05-06T01:53:46.302Z,12.57
2023-05-06T01:57:48.079Z,12.54
2023-05-06T02:01:50.030Z,12.50
2023-05-06T02:05:51.953Z,12.45
2023-05-06T02:09:55.791Z,12.41
2023-05-06T02:13:58.449Z,12.37
2023-05-06T02:18:00.428Z,12.32
2023-05-06T02:22:02.364Z,12.27
2023-05-06T02:26:04.629Z,12.21
2023-05-06T02:30:08.536Z,12.14
2023-05-06T02:34:11.238Z,12.05
2023-05-06T02:38:13.089Z,11.98
2023-05-06T02:42:16.121Z,11.94
2023-05-06T02:46:17.979Z,11.90
2023-05-06T02:50:20.574Z,11.83
2023-05-06T02:54:22.391Z,11.77
2023-05-06T02:58:24.729Z,11.73
2023-05-06T03:02:26.531Z,11.70
2023-05-06T03:06:28.576Z,11.65
2023-05-06T03:10:30.408Z,11.57
2023-05-06T03:14:33.477Z,11.56
2023-05-06T03:18:35.446Z,11.51
2023-05-06T03:22:37.447Z,11.50
2023-05-06T03:26:39.614Z,11.50
2023-05-06T03:30:43.184Z,11.47
2023-05-06T03:34:45.108Z,11.46
2023-05-06T03:38:52.194Z,11.44
2023-05-06T03:42:54.350Z,11.41
2023-05-06T03:46:57.638Z,11.45
2023-05-06T03:51:00.201Z,11.46
2023-05-06T03:55:02.078Z,11.48
2023-05-06T03:59:06.073Z,11.47
2023-05-06T04:03:08.221Z,11.50
2023-05-06T04:07:17.242Z,11.53
2023-05-06T04:11:19.263Z,11.60
2023-05-06T04:15:23.177Z,11.65
2023-05-06T04:19:25.783Z,11.65
2023-05-06T04:23:28.043Z,11.64
2023-05-06T04:27:32.397Z,11.67
2023-05-06T04:31:37.090Z,11.68
2023-05-06T04:35:51.369Z,11.73
2023-05-06T04:39:54.652Z,11.78
2023-05-06T04:43:57.065Z,11.82
2023-05-06T04:47:59.735Z,11.84
2023-05-06T04:52:02.125Z,11.88
2023-05-06T04:56:04.874Z,11.91
2023-05-06T05:00:10.844Z,11.91
2023-05-06T05:04:13.475Z,11.96
2023-05-06T05:08:15.529Z,12.04
2023-05-06T05:12:17.388Z,12.11
2023-05-06T05:16:22.881Z,12.18
2023-05-06T05:20:24.893Z,12.25
2023-05-06T05:24:26.821Z,12.33
2023-05-06T05:28:28.801Z,12.44
2023-05-06T05:32:31.659Z,12.50
2023-05-06T05:36:33.505Z,12.59
2023-05-06T05:40:38.441Z,12.66
2023-05-06T05:44:41.303Z,12.79
2023-05-06T05:48:43.936Z,12.96
2023-05-06T05:52:46.438Z,13.15
2023-05-06T05:56:48.753Z,13.34
2023-05-06T06:00:51.242Z,13.54
2023-05-06T06:04:54.882Z,13.73
2023-05-06T06:08:56.724Z,13.91
2023-05-06T06:12:59.197Z,14.00
2023-05-06T06:17:03.748Z,14.11
2023-05-06T06:21:05.781Z,14.21
2023-05-06T06:25:08.242Z,14.38
2023-05-06T06:29:10.222Z,14.52
2023-05-06T06:33:12.270Z,14.66
2023-05-06T06:37:15.153Z,14.79
2023-05-06T06:41:17.086Z,14.87
2023-05-06T06:45:19.100Z,14.93
2023-05-06T06:49:21.157Z,14.92
2023-05-06T06:53:23.027Z,14.93
2023-05-06T06:57:24.847Z,14.94
2023-05-06T07:01:26.738Z,14.98
2023-05-06T07:05:28.585Z,15.00
2023-05-06T07:09:30.443Z,15.06
2023-05-06T07:13:32.376Z,15.14
2023-05-06T07:17:34.261Z,15.23
2023-05-06T07:21:36.249Z,15.35
2023-05-06T07:25:38.110Z,15.46
2023-05-06T07:29:40.055Z,15.60
2023-05-06T07:33:42.590Z,15.76
2023-05-06T07:37:46.560Z,15.86
2023-05-06T07:41:48.316Z,15.91
2023-05-06T07:45:50.291Z,16.01
2023-05-06T07:49:52.202Z,16.02
2023-05-06T07:53:54.219Z,16.07
2023-05-06T07:57:56.042Z,16.20
2023-05-06T08:01:57.869Z,16.29
2023-05-06T08:06:00.433Z,16.36
2023-05-06T08:10:02.389Z,16.42
2023-05-06T08:14:04.276Z,16.55
2023-05-06T08:18:20.837Z,16.69
2023-05-06T08:22:23.940Z,16.80
2023-05-06T08:26:26.012Z,16.84
2023-05-06T08:30:28.795Z,16.94
2023-05-06T08:34:30.597Z,17.00
2023-05-06T08:38:32.421Z,17.08
2023-05-06T08:42:37.116Z,17.10
2023-05-06T08:46:38.921Z,17.17
2023-05-06T08:50:44.299Z,17.23
2023-05-06T08:54:46.441Z,17.29
2023-05-06T08:58:50.101Z,17.32
2023-05-06T09:02:52.042Z,17.35
2023-05-06T09:06:54.191Z,17.35
2023-05-06T09:10:56.065Z,17.44
2023-05-06T09:14:57.960Z,17.44
2023-05-06T09:18:59.806Z,17.52
2023-05-06T09:23:02.469Z,17.57
2023-05-06T09:27:04.857Z,17.61
2023-05-06T09:31:07.155Z,17.71
2023-05-06T09:35:10.850Z,17.66
2023-05-06T09:39:12.708Z,17.78
2023-05-06T09:43:15.831Z,17.96
2023-05-06T09:47:18.005Z,18.14
2023-05-06T09:51:20.732Z,18.23
2023-05-06T09:55:27.008Z,18.31
2023-05-06T09:59:30.850Z,18.41
2023-05-06T10:03:34.117Z,18.45
2023-05-06T10:07:36.704Z,18.40
2023-05-06T10:11:39.003Z,18.36
2023-05-06T10:15:42.607Z,18.39
2023-05-06T10:19:46.390Z,18.49
2023-05-06T10:23:56.646Z,18.58
2023-05-06T10:27:59.146Z,18.57
2023-05-06T10:32:03.530Z,18.70
2023-05-06T10:36:20.690Z,18.74
2023-05-06T10:40:24.249Z,18.82
2023-05-06T10:45:01.596Z,18.93
2023-05-06T10:49:11.329Z,18.98
2023-05-06T10:53:17.728Z,19.09
2023-05-06T10:57:22.742Z,19.22
2023-05-06T11:01:28.630Z,19.32
2023-05-06T11:05:30.678Z,19.34
2023-05-06T11:09:32.471Z,19.33
2023-05-06T11:13:35.414Z,19.34
2023-05-06T11:17:38.761Z,19.29
2023-05-06T11:21:40.752Z,19.22
2023-05-06T11:25:43.460Z,19.28
2023-05-06T11:29:45.580Z,19.36
2023-05-06T11:33:55.268Z,19.42
2023-05-06T11:37:57.350Z,19.45
2023-05-06T11:42:00.962Z,19.53
2023-05-06T11:46:02.955Z,19.64
2023-05-06T11:50:07.831Z,19.71
2023-05-06T11:54:11.333Z,19.87
2023-05-06T11:58:18.494Z,19.86
2023-05-06T12:02:20.599Z,19.92
2023-05-06T12:06:34.096Z,19.93
2023-05-06T12:10:37.100Z,20.00
2023-05-06T12:14:39.812Z,20.06
2023-05-06T12:18:41.755Z,20.19
2023-05-06T12:22:43.571Z,20.24
2023-05-06T12:26:47.278Z,20.38
2023-05-06T12:30:49.092Z,20.50
2023-05-06T12:34:50.968Z,20.58
2023-05-06T12:38:54.593Z,20.67
2023-05-06T12:42:56.473Z,20.79
2023-05-06T12:47:02.670Z,20.92
2023-05-06T12:51:21.810Z,20.97
2023-05-06T12:55:25.929Z,21.01
2023-05-06T12:59:27.939Z,20.97
2023-05-06T13:03:29.997Z,20.99
2023-05-06T13:07:31.843Z,20.96
2023-05-06T13:11:33.662Z,20.90
2023-05-06T13:15:35.839Z,20.86
2023-05-06T13:19:37.853Z,20.83
2023-05-06T13:23:46.934Z,20.85
2023-05-06T13:27:49.092Z,20.94
2023-05-06T13:31:51.672Z,20.90
2023-05-06T13:35:53.609Z,20.76
2023-05-06T13:39:55.539Z,20.58
2023-05-06T13:43:57.395Z,20.50
2023-05-06T13:47:59.170Z,20.47
2023-05-06T13:52:01.405Z,20.41
2023-05-06T13:56:03.328Z,20.37
2023-05-06T14:00:07.614Z,20.24
2023-05-06T14:04:09.363Z,20.15
2023-05-06T14:08:11.265Z,20.15
2023-05-06T14:12:13.069Z,20.18
2023-05-06T14:16:16.769Z,20.28
2023-05-06T14:20:18.678Z,20.37
2023-05-06T14:24:20.617Z,20.34
2023-05-06T14:28:22.387Z,20.33
2023-05-06T14:32:24.278Z,20.39
2023-05-06T14:36:26.133Z,20.38
2023-05-06T14:40:28.070Z,20.41
2023-05-06T14:44:29.931Z,20.51
2023-05-06T14:48:32.150Z,20.58
2023-05-06T14:52:33.950Z,20.71
2023-05-06T14:56:36.142Z,20.79
2023-05-06T15:00:38.138Z,20.80
2023-05-06T15:04:39.949Z,20.78
2023-05-06T15:08:41.834Z,20.71
2023-05-06T15:12:43.793Z,20.73
2023-05-06T15:16:46.174Z,20.78
2023-05-06T15:20:48.159Z,20.81
2023-05-06T15:24:49.981Z,20.76
2023-05-06T15:28:51.816Z,20.67
2023-05-06T15:32:53.750Z,20.55
2023-05-06T15:36:55.751Z,20.26
2023-05-06T15:40:57.571Z,19.98
2023-05-06T15:44:59.665Z,19.74
2023-05-06T15:53:06.256Z,19.51
2023-05-06T15:57:08.136Z,19.36
2023-05-06T16:01:10.981Z,19.14
2023-05-06T16:05:12.941Z,19.04
2023-05-06T16:09:14.927Z,18.96
2023-05-06T16:13:16.901Z,18.83
2023-05-06T16:17:18.754Z,18.72
2023-05-06T16:21:20.865Z,18.65
2023-05-06T16:25:23.319Z,18.66
2023-05-06T16:29:25.150Z,18.65
2023-05-06T16:33:27.018Z,18.57
2023-05-06T16:37:29.348Z,18.49
2023-05-06T16:41:31.160Z,18.43
2023-05-06T16:45:33.315Z,18.33
2023-05-06T16:49:35.220Z,18.21
2023-05-06T16:53:37.063Z,18.14
2023-05-06T16:57:38.859Z,18.07
2023-05-06T17:01:40.676Z,18.02
2023-05-06T17:05:42.482Z,17.97
2023-05-06T17:09:44.515Z,17.92
2023-05-06T17:13:46.377Z,17.92
2023-05-06T17:17:48.264Z,17.90
2023-05-06T17:21:50.531Z,17.84
2023-05-06T17:25:52.415Z,17.77
2023-05-06T17:29:54.411Z,17.63
2023-05-06T17:33:57.616Z,17.55
2023-05-06T17:37:59.744Z,17.45
2023-05-06T17:42:02.782Z,17.35
2023-05-06T17:46:04.751Z,17.19
2023-05-06T17:50:07.039Z,17.02
2023-05-06T17:54:08.833Z,16.86
2023-05-06T17:58:10.664Z,16.81
2023-05-06T18:02:16.000Z,16.72
2023-05-06T18:06:17.811Z,16.66
2023-05-06T18:10:19.960Z,16.62
2023-05-06T18:14:21.902Z,16.58
2023-05-06T18:18:23.720Z,16.55
2023-05-06T18:22:25.732Z,16.48
2023-05-06T18:26:43.237Z,16.45
2023-05-06T18:30:46.323Z,16.41
2023-05-06T18:34:48.149Z,16.35
2023-05-06T18:38:49.971Z,16.29
2023-05-06T18:42:51.842Z,16.24
2023-05-06T18:46:53.835Z,16.17
2023-05-06T18:50:55.690Z,16.14
2023-05-06T18:54:57.725Z,16.09
2023-05-06T18:58:59.983Z,16.04
2023-05-06T19:03:01.861Z,15.98
2023-05-06T19:07:03.744Z,15.94
2023-05-06T19:11:05.749Z,15.90
2023-05-06T19:15:08.300Z,15.86
2023-05-06T19:19:10.569Z,15.82
2023-05-06T19:23:12.384Z,15.79
2023-05-06T19:27:14.196Z,15.80
2023-05-06T19:31:15.989Z,15.79
2023-05-06T19:35:17.845Z,15.74
2023-05-06T19:39:21.565Z,15.71
2023-05-06T19:43:23.716Z,15.65
2023-05-06T19:47:29.501Z,15.62
2023-05-06T19:51:31.499Z,15.56
2023-05-06T19:55:33.436Z,15.53
2023-05-06T19:59:35.319Z,15.50
2023-05-06T20:03:37.877Z,15.49
2023-05-06T20:07:39.808Z,15.45
2023-05-06T20:11:41.703Z,15.40
2023-05-06T20:15:44.203Z,15.32
2023-05-06T20:19:46.956Z,15.27
2023-05-06T20:23:48.770Z,15.26
2023-05-06T20:27:51.033Z,15.23
2023-05-06T20:31:52.859Z,15.21
2023-05-06T20:35:55.637Z,15.19
2023-05-06T20:39:58.278Z,15.17
2023-05-06T20:44:00.112Z,15.14
2023-05-06T20:48:05.121Z,15.12
2023-05-06T20:52:08.050Z,15.11
2023-05-06T20:56:21.044Z,15.09
2023-05-06T21:00:22.835Z,15.04
2023-05-06T21:04:24.804Z,15.00
2023-05-06T21:08:26.611Z,14.96
2023-05-06T21:12:28.435Z,14.92
2023-05-06T21:16:30.447Z,14.88
2023-05-06T21:20:32.262Z,14.84
2023-05-06T21:24:34.310Z,14.80
2023-05-06T21:28:37.265Z,14.79
2023-05-06T21:32:39.206Z,14.77
2023-05-06T21:36:41.063Z,14.75
2023-05-06T21:40:42.853Z,14.75
2023-05-06T21:44:44.796Z,14.76
2023-05-06T21:48:46.612Z,14.78
2023-05-06T21:52:48.457Z,14.78
2023-05-06T21:56:50.255Z,14.81
2023-05-06T22:00:52.622Z,14.79
2023-05-06T22:04:54.450Z,14.81
2023-05-06T22:08:56.250Z,14.78
2023-05-06T22:12:58.397Z,14.75
2023-05-06T22:17:00.297Z,14.72
2023-05-06T22:21:03.441Z,14.72
2023-05-06T22:25:06.072Z,14.73
2023-05-06T22:29:07.987Z,14.73
2023-05-06T22:33:10.029Z,14.69
2023-05-06T22:37:11.988Z,14.70
2023-05-06T22:41:13.842Z,14.64
2023-05-06T22:45:15.931Z,14.62
2023-05-06T22:49:19.811Z,14.59
2023-05-06T22:53:21.635Z,14.56
2023-05-06T22:57:25.485Z,14.53
2023-05-06T23:01:32.316Z,14.49
2023-05-06T23:05:34.301Z,14.45
2023-05-06T23:09:36.112Z,14.46
2023-05-06T23:13:37.940Z,14.44
2023-05-06T23:17:39.834Z,14.44
2023-05-06T23:21:41.959Z,14.42
2023-05-06T23:25:43.759Z,14.41
2023-05-06T23:29:45.581Z,14.35
2023-05-06T23:33:47.582Z,14.35
2023-05-06T23:37:49.392Z,14.34
2023-05-06T23:41:51.263Z,14.33
2023-05-06T23:45:53.144Z,14.34
2023-05-06T23:49:55.017Z,14.34
2023-05-06T23:53:56.806Z,14.33
2023-05-06T23:57:58.601Z,14.35
